Station: Tunnack  

  Atmospheric Gas Attenuation - ITU Rec 676-11   ----------------- dB/100km -----------------
Date Time Temp RH % AH g/m3 Dew Point Wind Direction Speed kph Gust kph Barometer mB Rainfall Since 9am 24GHz 47GHz 76GHz 122GHz 134GHz 241GHz
08/05 12:30 10 64 6.02 3.5 20 32 1015.1 0 14.2 22.9 31.5 82.1 69.3 236.0
08/05 12:20 10.2 64 6.09 3.7 15 17 1015 0 14.4 23.0 31.6 82.6 70.0 238.4
08/05 12:10 9.9 64 5.98 3.4 24 30 1015 0 14.2 22.9 31.3 81.8 68.9 234.5
08/05 12:00 9.9 64 5.98 3.4 22 37 1014.9 0 14.2 22.9 31.3 81.8 68.9 234.4
08/05 11:50 10.5 61 5.92 3.3 26 35 1014.7 0 14.0 22.6 30.9 80.5 67.6 230.0
08/05 11:40 10.7 62 6.09 3.7 30 33 1014.6 0 14.4 22.8 31.4 82.0 69.5 236.9
08/05 11:30 11.1 61 6.15 3.9 26 35 1014.6 0 14.5 22.8 31.5 82.2 69.9 238.3
08/05 11:20 11.1 63 6.35 4.3 20 24 1014.6 0 14.9 23.1 32.3 84.3 72.4 247.1
08/05 11:10 11.1 63 6.35 4.3 22 30 1014.5 0 14.9 23.1 32.3 84.3 72.4 247.1
08/05 11:00 10.3 64 6.13 3.8 26 37 1014.4 0 14.5 23.0 31.7 82.8 70.4 239.8
08/05 10:50 10.6 65 6.35 4.3 22 32 1014.3 0 14.9 23.2 32.4 84.8 72.9 248.6
08/05 10:40 9.7 68 6.27 4.1 19 24 1014.3 0 14.8 23.4 32.5 84.9 72.7 247.8
08/05 10:30 9.3 66 5.93 3.3 24 39 1014.1 0 14.1 22.9 31.3 81.8 68.7 233.8
08/05 10:20 9.1 69 6.12 3.7 20 26 1014 0 14.5 23.3 32.2 84.0 71.3 242.9
08/05 10:10 8.9 69 6.05 3.5 24 32 1013.8 0 14.3 23.2 32.0 83.4 70.6 240.3
08/05 10:00 8.7 70 6.06 3.5 26 41 1013.5 0 14.4 23.3 32.1 83.7 70.9 241.3
08/05 09:50 8.9 70 6.13 3.7 24 30 1013.3 0 14.5 23.3 32.2 84.2 71.6 243.8
08/05 09:40 8.6 71 6.1 3.6 28 35 1013.2 0 14.5 23.3 32.2 84.2 71.4 243.4
08/05 09:30 8.5 73 6.24 3.9 26 39 1013.1 0 14.8 23.6 32.8 85.8 73.3 250.0
08/05 09:20 8.5 73 6.24 3.9 22 30 1013 0 14.8 23.6 32.8 85.8 73.3 250.0
08/05 09:10 8.4 72 6.11 3.7 30 39 1012.9 0 14.5 23.4 32.4 84.5 71.7 244.4
08/05 09:00 8.1 73 6.08 3.6 24 41 1012.9 0 14.4 23.4 32.4 84.5 71.6 243.9
08/05 08:50 8 74 6.12 3.7 19 22 1012.8 0 14.5 23.5 32.5 85.0 72.2 246.0
08/05 08:40 7.9 75 6.16 3.8 28 33 1012.5 0 14.6 23.6 32.7 85.5 72.8 248.1
08/05 08:30 7.8 75 6.12 3.7 22 35 1012.3 0 14.5 23.5 32.6 85.2 72.4 246.6
08/05 08:20 7.7 74 6 3.4 28 35 1012.1 0 14.3 23.4 32.2 84.0 70.9 241.4
08/05 08:10 7.7 74 6 3.4 24 30 1011.9 0 14.3 23.4 32.2 84.0 70.9 241.3
08/05 08:00 7.6 75 6.04 3.5 28 39 1011.4 0 14.4 23.4 32.3 84.5 71.5 243.3
08/05 07:50 7.4 76 6.05 3.5 20 30 1011.2 0 14.4 23.5 32.4 84.8 71.8 244.4
08/05 07:40 7.3 77 6.09 3.5 22 28 1011 0 14.5 23.6 32.6 85.3 72.4 246.5
08/05 07:30 7.3 77 6.09 3.5 30 48 1010.8 0 14.5 23.6 32.6 85.3 72.4 246.4
08/05 07:20 7.4 77 6.13 3.6 26 32 1010.7 0 14.6 23.6 32.7 85.6 72.8 247.9
08/05 07:10 7.4 77 6.13 3.6 32 50 1010.4 0 14.6 23.6 32.7 85.6 72.8 247.9
08/05 07:00 7.4 77 6.13 3.6 28 43 1010.4 0 14.6 23.6 32.7 85.6 72.8 247.9
08/05 06:50 7.4 78 6.21 3.8 24 32 1010.5 0 14.7 23.7 33.1 86.4 73.8 251.6
08/05 06:40 7.4 78 6.21 3.8 33 43 1010.3 0 14.7 23.7 33.0 86.4 73.8 251.5
08/05 06:30 7.2 78 6.13 3.6 26 39 1010 0 14.6 23.6 32.8 85.7 72.9 248.4
08/05 06:20 7.3 78 6.17 3.7 26 33 1010.1 0 14.7 23.7 32.9 86.1 73.4 249.9
08/05 06:10 7.4 77 6.13 3.6 33 39 1009.8 0 14.6 23.6 32.7 85.5 72.7 247.7
08/05 06:00 7.3 79 6.24 3.9 26 44 1009.7 0 14.8 23.8 33.2 86.8 74.3 253.1
08/05 05:50 7.1 80 6.24 3.9 28 33 1009.6 0 14.8 23.8 33.3 87.0 74.4 253.7
08/05 05:40 7 81 6.28 4 20 28 1009.5 0 14.9 23.9 33.5 87.5 75.1 255.9
08/05 05:30 7.2 82 6.44 4.3 24 37 1009.5 0 15.2 24.1 34.0 89.0 77.0 262.6
08/05 05:20 7.3 81 6.4 4.3 28 35 1009.3 0 15.2 24.0 33.8 88.4 76.3 260.4
08/05 05:10 7.5 79 6.33 4.1 32 43 1009 0 15.0 23.8 33.4 87.4 75.2 256.4
08/05 05:00 7.5 78 6.25 3.9 22 39 1009 0 14.8 23.7 33.1 86.6 74.1 252.7
08/05 04:50 7.5 78 6.25 3.9 30 35 1008.8 0 14.8 23.7 33.1 86.6 74.1 252.7
08/05 04:40 7.3 78 6.17 3.7 20 33 1008.5 0 14.7 23.6 32.9 85.9 73.3 249.6
08/05 04:30 7.2 82 6.44 4.3 22 43 1008.2 0 15.2 24.1 34.0 88.9 76.9 262.3
08/05 04:20 7.1 84 6.55 4.6 24 35 1008.1 0 15.5 24.3 34.4 90.2 78.4 267.8
08/05 04:10 7.3 85 6.72 4.9 24 30 1007.8 0 15.8 24.5 35.0 91.7 80.5 275.0
08/05 04:00 7.5 84 6.73 5 26 39 1007.7 0 15.9 24.4 35.0 91.6 80.4 274.7
08/05 03:50 7.9 81 6.66 4.8 24 28 1007.7 0 15.7 24.2 34.5 90.4 79.1 270.1
08/05 03:40 8 81 6.7 4.9 24 32 1007.5 0 15.8 24.2 34.6 90.7 79.5 271.5
08/05 03:30 8.2 78 6.53 4.6 24 43 1007.4 0 15.4 23.9 33.9 88.6 77.0 263.0
08/05 03:20 8.3 77 6.49 4.5 32 44 1007.3 0 15.3 23.8 33.7 88.1 76.4 260.8
08/05 03:10 8.3 78 6.58 4.7 20 28 1007.2 0 15.5 23.9 34.0 89.0 77.6 264.9
08/05 03:00 8.3 78 6.58 4.7 24 39 1007.3 0 15.5 24.0 34.0 89.0 77.6 264.9
08/05 02:50 8.4 77 6.53 4.6 22 24 1007.1 0 15.4 23.8 33.8 88.4 76.8 262.2
08/05 02:40 8.4 78 6.62 4.8 20 35 1007 0 15.6 24.0 34.1 89.3 78.0 266.3
08/05 02:30 8.5 77 6.58 4.7 30 44 1006.7 0 15.5 23.9 33.9 88.8 77.3 264.1
08/05 02:20 8.4 78 6.62 4.8 35 44 1006.6 0 15.6 24.0 34.1 89.3 78.0 266.3
08/05 02:10 8.4 80 6.79 5.2 30 41 1006.5 0 16.0 24.2 34.8 91.1 80.2 274.1
08/05 02:00 8.4 80 6.79 5.2 32 50 1006.4 0 16.0 24.2 34.8 91.1 80.2 274.0
08/05 01:50 8.7 79 6.83 5.3 30 44 1006.5 0 16.0 24.2 34.8 91.2 80.4 274.9
08/05 01:40 8.7 80 6.92 5.4 28 35 1006.5 0 16.2 24.4 35.2 92.1 81.6 279.0
08/05 01:30 8.7 79 6.83 5.3 26 43 1006.4 0 16.0 24.2 34.8 91.2 80.4 274.9
08/05 01:20 8.7 79 6.83 5.3 24 30 1006.4 0 16.0 24.2 34.8 91.2 80.4 274.9
08/05 01:10 8.8 80 6.97 5.5 32 44 1006.2 0 16.3 24.4 35.3 92.5 82.1 280.9
08/05 01:00 8.7 81 7.01 5.6 24 44 1006.2 0 16.4 24.5 35.5 93.1 82.8 283.1
08/05 00:50 8.7 83 7.18 6 24 35 1006.4 0 16.8 24.8 36.2 94.9 85.0 291.1
08/05 00:40 8.8 83 7.23 6.1 22 26 1006.3 0 16.9 24.8 36.4 95.3 85.6 293.1
08/05 00:30 8.7 85 7.35 6.3 22 35 1006.1 0 17.1 25.0 36.9 96.7 87.3 299.0
08/05 00:20 8.3 87 7.34 6.3 22 30 1006.1 0 17.1 25.1 37.0 97.1 87.6 300.1
08/05 00:10 8.2 88 7.37 6.3 22 28 1005.9 0 17.2 25.2 37.2 97.6 88.1 301.8
08/05 00:00 8.1 89 7.41 6.4 19 30 1006 0 17.3 25.3 37.4 98.1 88.8 304.2
07/05 23:50 8.1 88 7.33 6.2 17 22 1005.9 0 17.1 25.2 37.1 97.2 87.7 300.3
07/05 23:40 7.7 87 7.06 5.7 17 20 1006.2 0 16.6 24.9 36.2 94.8 84.5 289.1
07/05 23:30 7.6 87 7.01 5.6 7 15 1006.1 0 16.5 24.8 36.0 94.4 83.9 287.1
07/05 23:20 7.6 86 6.93 5.4 7 9 1006.1 0 16.3 24.7 35.7 93.5 82.9 283.4
07/05 23:10 7.5 87 6.97 5.5 7 7 1006.2 0 16.4 24.8 35.9 94.1 83.5 285.6
07/05 23:00 7.3 85 6.72 5 7 9 1006.1 0 15.8 24.4 35.0 91.6 80.4 274.6
07/05 22:50 7.6 85 6.85 5.2 7 9 1006.2 0 16.1 24.5 35.4 92.6 81.8 279.6
07/05 22:40 7.7 85 6.9 5.3 11 11 1006.2 0 16.2 24.6 35.5 93.1 82.4 281.6
07/05 22:30 7.5 86 6.89 5.3 15 22 1006.3 0 16.2 24.6 35.6 93.2 82.5 281.9
07/05 22:20 7.2 85 6.68 4.9 19 22 1006.4 0 15.8 24.4 34.9 91.3 80.0 273.1
07/05 22:10 7.5 85 6.81 5.1 20 28 1006.6 0 16.0 24.5 35.3 92.4 81.4 278.2
07/05 22:00 7.3 85 6.72 5 20 28 1006.6 0 15.8 24.4 35.0 91.6 80.4 274.7
07/05 21:50 6.5 85 6.38 4.2 20 24 1006.8 0 15.1 24.1 34.0 88.9 76.7 261.6
07/05 21:40 5.9 84 6.06 3.4 17 22 1006.8 0 14.5 23.7 32.9 86.1 73.0 248.6
07/05 21:30 5.5 82 5.76 2.7 11 17 1007 0 13.8 23.4 31.9 83.4 69.4 236.0
07/05 21:20 5.4 81 5.66 2.4 11 13 1007 0 13.6 23.2 31.5 82.4 68.2 231.6
07/05 21:10 5.3 80 5.55 2.1 19 20 1007 0 13.4 23.1 31.1 81.3 66.9 226.9
07/05 21:00 5.5 78 5.48 2 13 20 1007.1 0 13.2 22.9 30.8 80.4 65.8 223.1
07/05 20:50 5.7 76 5.41 1.8 15 17 1007.1 0 13.1 22.8 30.4 79.5 64.7 219.4
07/05 20:40 6.5 76 5.7 2.6 17 19 1007.1 0 13.7 23.0 31.3 81.7 67.8 230.3
07/05 20:30 6.5 75 5.63 2.4 19 32 1007 0 13.5 22.9 31.0 80.9 66.9 227.1
07/05 20:20 6.2 75 5.52 2.1 11 13 1007.3 0 13.3 22.8 30.7 80.1 65.7 223.0
07/05 20:10 6.2 74 5.45 1.9 15 19 1007.4 0 13.2 22.7 30.4 79.4 64.8 219.9
07/05 20:00 5.9 74 5.34 1.6 17 26 1007.5 0 12.9 22.6 30.1 78.6 63.7 215.7

Last Refresh: 08-May-2026 12:07:30

Bureau of Meteorology